createdAt,value
2019-05-02T00:02:00.133Z,5.85
2019-05-02T00:04:28.496Z,6.35
2019-05-02T00:07:04.047Z,7.25
2019-05-02T00:09:33.557Z,6.55
2019-05-02T00:12:02.101Z,6.75
2019-05-02T00:14:31.081Z,6.90
2019-05-02T00:16:59.718Z,6.95
2019-05-02T00:19:28.023Z,6.70
2019-05-02T00:21:57.309Z,6.72
2019-05-02T00:24:25.665Z,6.97
2019-05-02T00:26:56.116Z,7.25
2019-05-02T00:29:25.059Z,6.87
2019-05-02T00:31:53.520Z,6.83
2019-05-02T00:34:21.852Z,7.95
2019-05-02T00:36:50.169Z,7.72
2019-05-02T00:39:18.435Z,7.60
2019-05-02T00:41:46.929Z,7.72
2019-05-02T00:44:15.260Z,8.43
2019-05-02T00:46:44.005Z,8.45
2019-05-02T00:49:12.262Z,9.80
2019-05-02T00:51:40.516Z,10.05
2019-05-02T00:54:08.795Z,9.20
2019-05-02T00:56:40.194Z,9.98
2019-05-02T00:59:08.617Z,10.48
2019-05-02T01:01:44.730Z,12.03
2019-05-02T01:04:14.678Z,11.25
2019-05-02T01:06:44.702Z,11.08
2019-05-02T01:09:13.431Z,10.82
2019-05-02T01:11:41.700Z,12.68
2019-05-02T01:14:10.036Z,13.20
2019-05-02T01:16:38.393Z,14.18
2019-05-02T01:19:06.676Z,12.73
2019-05-02T01:21:38.821Z,12.60
2019-05-02T01:24:05.003Z,13.65
2019-05-02T01:26:38.140Z,12.75
2019-05-02T01:29:17.278Z,13.30
2019-05-02T01:31:49.888Z,15.20
2019-05-02T01:34:35.122Z,16.42
2019-05-02T01:37:05.042Z,15.65
2019-05-02T01:39:33.493Z,15.03
2019-05-02T01:42:04.123Z,17.20
2019-05-02T01:44:36.309Z,17.07
2019-05-02T01:47:03.020Z,16.67
2019-05-02T01:49:51.932Z,17.07
2019-05-02T01:52:23.799Z,16.50
2019-05-02T01:54:50.936Z,19.27
2019-05-02T01:57:19.418Z,18.48
2019-05-02T01:59:47.789Z,18.25
2019-05-02T02:02:16.112Z,19.48
2019-05-02T02:04:44.363Z,17.98
2019-05-02T02:07:14.973Z,19.87
2019-05-02T02:09:44.479Z,21.33
2019-05-02T02:12:13.678Z,19.95
2019-05-02T02:14:41.964Z,19.67
2019-05-02T02:17:15.327Z,21.82
2019-05-02T02:19:42.084Z,21.55
2019-05-02T02:22:12.027Z,21.73
2019-05-02T02:24:50.720Z,21.75
2019-05-02T02:27:19.985Z,20.92
2019-05-02T02:29:49.038Z,22.30
2019-05-02T02:32:19.978Z,22.73
2019-05-02T02:34:47.632Z,22.25
2019-05-02T02:37:15.926Z,20.25
2019-05-02T02:39:48.375Z,20.77
2019-05-02T02:42:14.265Z,21.02
2019-05-02T02:44:44.187Z,22.87
2019-05-02T02:47:18.842Z,22.10
2019-05-02T02:49:42.649Z,24.50
2019-05-02T02:52:11.389Z,23.27
2019-05-02T02:54:43.360Z,23.67
2019-05-02T02:57:21.888Z,23.45
2019-05-02T02:59:39.633Z,24.47
2019-05-02T03:02:10.086Z,22.35
2019-05-02T03:04:43.947Z,25.50
2019-05-02T03:07:09.109Z,24.55
2019-05-02T03:09:37.464Z,25.08
2019-05-02T03:12:22.095Z,23.47
2019-05-02T03:14:54.716Z,23.50
2019-05-02T03:17:26.688Z,24.18
2019-05-02T03:19:54.235Z,25.02
2019-05-02T03:22:23.103Z,26.75
2019-05-02T03:24:51.347Z,26.48
2019-05-02T03:27:19.623Z,26.00
2019-05-02T03:29:47.877Z,24.00
2019-05-02T03:32:31.845Z,22.52
2019-05-02T03:34:51.875Z,26.07
2019-05-02T03:37:16.237Z,26.35
2019-05-02T03:39:49.452Z,28.07
2019-05-02T03:42:14.541Z,28.98
2019-05-02T03:44:49.466Z,27.45
2019-05-02T03:47:12.913Z,28.87
2019-05-02T03:49:48.792Z,28.02
2019-05-02T03:52:11.169Z,27.80
2019-05-02T03:54:48.491Z,29.82
2019-05-02T03:57:09.504Z,26.62
2019-05-02T03:59:39.680Z,30.75
2019-05-02T04:02:14.172Z,31.68
2019-05-02T04:04:37.947Z,33.73
2019-05-02T04:07:06.287Z,30.10
2019-05-02T04:09:39.110Z,29.00
2019-05-02T04:12:05.306Z,31.85
2019-05-02T04:14:38.175Z,33.25
2019-05-02T04:17:03.630Z,30.88
2019-05-02T04:19:34.756Z,31.73
2019-05-02T04:22:08.394Z,34.50
2019-05-02T04:24:32.362Z,30.45
2019-05-02T04:27:00.644Z,34.08
2019-05-02T04:29:31.201Z,33.05
2019-05-02T04:32:04.324Z,34.67
2019-05-02T04:34:28.988Z,34.40
2019-05-02T04:37:01.058Z,30.37
2019-05-02T04:39:28.621Z,34.23
2019-05-02T04:41:58.687Z,29.82
2019-05-02T04:44:32.271Z,31.80
2019-05-02T04:46:59.780Z,32.70
2019-05-02T04:49:29.839Z,33.23
2019-05-02T04:52:04.634Z,31.97
2019-05-02T04:54:31.888Z,34.20
2019-05-02T04:57:01.826Z,27.52
2019-05-02T04:59:28.486Z,27.75
2019-05-02T05:02:00.648Z,30.92
2019-05-02T05:04:27.684Z,27.42
2019-05-02T05:07:00.918Z,29.27
2019-05-02T05:09:27.898Z,29.50
2019-05-02T05:11:58.999Z,28.10
2019-05-02T05:14:32.255Z,28.75
2019-05-02T05:16:57.990Z,29.72
2019-05-02T05:19:30.921Z,30.95
2019-05-02T05:22:04.552Z,30.48
2019-05-02T05:24:38.518Z,30.08
2019-05-02T05:27:08.228Z,27.67
2019-05-02T05:29:37.455Z,28.10
2019-05-02T05:32:09.941Z,28.67
2019-05-02T05:34:37.842Z,27.48
2019-05-02T05:37:11.638Z,27.22
2019-05-02T05:39:37.983Z,29.55
2019-05-02T05:42:05.716Z,28.85
2019-05-02T05:44:33.975Z,27.77
2019-05-02T05:47:02.285Z,27.32
2019-05-02T05:49:30.598Z,29.35
2019-05-02T05:52:00.656Z,28.92
2019-05-02T05:54:33.053Z,23.02
2019-05-02T05:56:58.827Z,28.57
2019-05-02T05:59:31.824Z,25.37
2019-05-02T06:01:57.988Z,23.87
2019-05-02T06:04:32.712Z,27.45
2019-05-02T06:06:59.572Z,25.08
2019-05-02T06:09:30.945Z,23.73
2019-05-02T06:11:56.688Z,24.07
2019-05-02T06:14:26.254Z,24.45
2019-05-02T06:16:54.996Z,24.27
2019-05-02T06:19:23.205Z,23.42
2019-05-02T06:21:51.442Z,24.63
2019-05-02T06:24:19.696Z,24.27
2019-05-02T06:26:49.821Z,24.20
2019-05-02T06:29:20.613Z,24.63
2019-05-02T06:31:49.357Z,26.45
2019-05-02T06:34:17.652Z,23.70
2019-05-02T06:36:46.035Z,24.67
2019-05-02T06:39:14.360Z,23.95
2019-05-02T06:41:42.768Z,24.63
2019-05-02T06:44:11.190Z,25.12
2019-05-02T06:46:39.528Z,22.55
2019-05-02T06:49:07.775Z,23.95
2019-05-02T06:51:36.033Z,23.62
2019-05-02T06:54:04.275Z,24.18
2019-05-02T06:56:32.505Z,23.42
2019-05-02T06:59:02.397Z,21.60
2019-05-02T07:01:30.929Z,22.27
2019-05-02T07:03:59.161Z,23.15
2019-05-02T07:06:27.626Z,19.17
2019-05-02T07:08:59.322Z,20.43
2019-05-02T07:11:26.461Z,21.35
2019-05-02T07:13:54.684Z,21.65
2019-05-02T07:16:37.633Z,21.75
2019-05-02T07:19:01.745Z,21.17
2019-05-02T07:21:29.992Z,20.72
2019-05-02T07:23:58.278Z,18.37
2019-05-02T07:26:26.675Z,18.17
2019-05-02T07:28:54.947Z,19.23
2019-05-02T07:31:23.182Z,18.55
2019-05-02T07:33:51.473Z,18.57
2019-05-02T07:36:19.736Z,19.25
2019-05-02T07:38:47.979Z,18.37
2019-05-02T07:41:16.223Z,19.73
2019-05-02T07:43:44.451Z,20.85
2019-05-02T07:46:16.170Z,21.62
2019-05-02T07:48:43.689Z,20.08
2019-05-02T07:51:12.147Z,17.95
2019-05-02T07:53:44.613Z,21.25
2019-05-02T07:56:12.523Z,18.77
2019-05-02T07:58:46.937Z,21.25
2019-05-02T08:01:13.537Z,20.00
2019-05-02T08:03:40.716Z,19.48
2019-05-02T08:06:09.011Z,16.73
2019-05-02T08:08:37.249Z,18.67
2019-05-02T08:11:05.523Z,20.32
2019-05-02T08:13:33.802Z,22.70
2019-05-02T08:16:02.023Z,19.37
2019-05-02T08:18:31.605Z,21.35
2019-05-02T08:21:00.179Z,21.95
2019-05-02T08:23:28.406Z,19.90
2019-05-02T08:25:56.760Z,22.90
2019-05-02T08:28:26.746Z,23.22
2019-05-02T08:30:56.617Z,19.90
2019-05-02T08:33:29.133Z,22.90
2019-05-02T08:35:55.239Z,22.90
2019-05-02T08:38:23.480Z,22.32
2019-05-02T08:40:51.779Z,22.52
2019-05-02T08:43:20.562Z,22.85
2019-05-02T08:45:48.813Z,22.25
2019-05-02T08:48:17.088Z,23.12
2019-05-02T08:50:45.341Z,21.48
2019-05-02T08:53:14.356Z,23.07
2019-05-02T08:55:45.329Z,23.07
2019-05-02T08:58:14.617Z,21.60
2019-05-02T09:00:43.696Z,25.23
2019-05-02T09:03:11.926Z,21.73
2019-05-02T09:05:45.449Z,25.00
2019-05-02T09:08:14.331Z,22.13
2019-05-02T09:10:42.236Z,20.12
2019-05-02T09:13:10.341Z,19.92
2019-05-02T09:15:40.485Z,20.57
2019-05-02T09:18:08.607Z,22.20
2019-05-02T09:20:36.972Z,21.07
2019-05-02T09:23:05.220Z,18.60
2019-05-02T09:25:33.593Z,16.75
2019-05-02T09:28:01.972Z,18.73
2019-05-02T09:30:30.246Z,17.17
2019-05-02T09:33:04.858Z,19.57
2019-05-02T09:35:28.464Z,20.40
2019-05-02T09:37:56.688Z,20.10
2019-05-02T09:40:25.091Z,18.98
2019-05-02T09:43:00.050Z,16.90
2019-05-02T09:45:27.815Z,14.95
2019-05-02T09:48:04.105Z,17.48
2019-05-02T09:50:29.411Z,15.80
2019-05-02T09:52:54.979Z,17.12
2019-05-02T09:55:50.072Z,16.70
2019-05-02T09:58:19.491Z,14.45
2019-05-02T10:00:46.001Z,14.23
2019-05-02T10:03:14.499Z,15.32
2019-05-02T10:05:43.186Z,13.60
2019-05-02T10:08:13.867Z,14.18
2019-05-02T10:10:45.762Z,13.38
2019-05-02T10:13:12.332Z,13.40
2019-05-02T10:15:42.113Z,14.07
2019-05-02T10:18:14.114Z,14.35
2019-05-02T10:20:41.934Z,14.78
2019-05-02T10:23:11.993Z,15.25
2019-05-02T10:25:46.123Z,16.70
2019-05-02T10:28:12.791Z,15.30
2019-05-02T10:30:42.451Z,15.53
2019-05-02T10:33:12.174Z,14.15
2019-05-02T10:35:43.384Z,15.55
2019-05-02T10:38:18.006Z,16.60
2019-05-02T10:40:42.433Z,15.13
2019-05-02T10:43:11.795Z,14.83
2019-05-02T10:45:42.511Z,14.68
2019-05-02T10:48:22.803Z,15.32
2019-05-02T10:50:48.612Z,15.03
2019-05-02T10:53:16.959Z,15.00
2019-05-02T10:55:45.891Z,17.75
2019-05-02T10:58:15.063Z,14.85
2019-05-02T11:00:45.385Z,18.02
2019-05-02T11:03:15.063Z,18.12
2019-05-02T11:05:58.023Z,17.32
2019-05-02T11:08:27.216Z,16.45
2019-05-02T11:10:55.445Z,18.73
2019-05-02T11:13:42.500Z,16.95
2019-05-02T11:16:28.807Z,20.75
2019-05-02T11:19:02.484Z,17.80
2019-05-02T11:21:32.190Z,19.80
2019-05-02T11:24:02.492Z,21.02
2019-05-02T11:26:32.506Z,18.82
2019-05-02T11:29:02.764Z,19.55
2019-05-02T11:31:32.437Z,18.17
2019-05-02T11:34:01.790Z,18.40
2019-05-02T11:36:32.564Z,20.23
2019-05-02T11:39:09.763Z,23.05
2019-05-02T11:41:31.760Z,22.22
2019-05-02T11:44:00.307Z,21.57
2019-05-02T11:46:28.646Z,21.97
2019-05-02T11:48:58.701Z,23.75
2019-05-02T11:51:27.169Z,22.25
2019-05-02T11:53:59.234Z,24.00
2019-05-02T11:56:25.400Z,22.98
2019-05-02T11:58:53.655Z,24.00
2019-05-02T12:01:34.556Z,23.67
2019-05-02T12:03:52.754Z,23.15
2019-05-02T12:06:22.581Z,21.23
2019-05-02T12:08:52.504Z,22.62
2019-05-02T12:11:22.862Z,20.68
2019-05-02T12:13:54.814Z,20.77
2019-05-02T12:16:23.009Z,19.62
2019-05-02T12:18:53.568Z,22.60
2019-05-02T12:21:22.862Z,21.00
2019-05-02T12:23:52.664Z,21.37
2019-05-02T12:26:22.088Z,19.87
2019-05-02T12:28:52.445Z,20.52
2019-05-02T12:31:28.932Z,22.10
2019-05-02T12:33:57.852Z,21.93
2019-05-02T12:36:26.068Z,21.85
2019-05-02T12:38:55.304Z,20.30
2019-05-02T12:41:25.263Z,22.93
2019-05-02T12:43:53.592Z,21.60
2019-05-02T12:46:22.319Z,22.58
2019-05-02T12:48:51.982Z,22.13
2019-05-02T12:51:22.340Z,23.75
2019-05-02T12:53:52.684Z,23.12
2019-05-02T12:56:22.700Z,24.23
2019-05-02T12:58:52.929Z,23.10
2019-05-02T13:01:22.478Z,22.32
2019-05-02T13:03:52.391Z,24.87
2019-05-02T13:06:21.961Z,22.82
2019-05-02T13:08:52.378Z,21.25
2019-05-02T13:11:26.628Z,22.80
2019-05-02T13:13:54.884Z,21.75
2019-05-02T13:16:23.180Z,21.30
2019-05-02T13:18:51.972Z,21.52
2019-05-02T13:21:24.866Z,22.10
2019-05-02T13:23:54.733Z,20.75
2019-05-02T13:26:26.905Z,18.87
2019-05-02T13:28:52.940Z,19.07
2019-05-02T13:31:22.824Z,19.20
2019-05-02T13:33:52.688Z,20.43
2019-05-02T13:36:58.013Z,19.10
2019-05-02T13:39:33.087Z,17.98
2019-05-02T13:42:01.790Z,17.32
2019-05-02T13:44:43.676Z,20.35
2019-05-02T13:47:13.712Z,19.45
2019-05-02T13:49:53.658Z,17.65
2019-05-02T13:52:12.415Z,17.70
2019-05-02T13:54:42.537Z,17.57
2019-05-02T13:57:12.129Z,14.83
2019-05-02T13:59:41.646Z,13.72
2019-05-02T14:02:31.638Z,12.98
2019-05-02T14:05:02.101Z,11.60
2019-05-02T14:07:32.194Z,9.80
2019-05-02T14:10:02.479Z,9.38
2019-05-02T14:12:47.757Z,9.98
2019-05-02T14:15:17.433Z,10.25
2019-05-02T14:17:45.663Z,10.15
2019-05-02T14:20:13.980Z,10.82
2019-05-02T14:22:42.540Z,10.58
2019-05-02T14:25:12.266Z,10.65
2019-05-02T14:27:42.169Z,10.20
2019-05-02T14:30:12.107Z,9.65
2019-05-02T14:32:42.442Z,10.55
2019-05-02T14:35:28.262Z,9.95
2019-05-02T14:38:13.646Z,8.83
2019-05-02T14:40:45.167Z,8.90
2019-05-02T14:43:15.025Z,8.13
2019-05-02T14:46:03.263Z,8.10
2019-05-02T14:48:41.760Z,8.33
2019-05-02T14:51:07.629Z,8.83
2019-05-02T14:53:35.893Z,8.73
2019-05-02T14:56:12.508Z,8.03
2019-05-02T14:58:42.736Z,8.33
2019-05-02T15:01:16.882Z,7.72
2019-05-02T15:03:42.313Z,8.78
2019-05-02T15:06:11.734Z,8.58
2019-05-02T15:08:42.032Z,8.40
2019-05-02T15:11:12.415Z,9.18
2019-05-02T15:13:43.107Z,9.18
2019-05-02T15:16:17.666Z,8.98
2019-05-02T15:18:41.983Z,8.53
2019-05-02T15:21:16.220Z,9.93
2019-05-02T15:23:42.336Z,10.68
2019-05-02T15:26:13.692Z,10.28
2019-05-02T15:28:42.214Z,10.75
2019-05-02T15:31:27.907Z,10.28
2019-05-02T15:34:05.092Z,9.30
2019-05-02T15:36:32.377Z,10.15
2019-05-02T15:41:32.618Z,9.50
2019-05-02T15:44:01.966Z,9.65
2019-05-02T15:46:31.926Z,9.88
2019-05-02T15:49:01.937Z,7.20
2019-05-02T15:51:30.458Z,8.15
2019-05-02T15:54:08.813Z,9.40
2019-05-02T15:57:00.626Z,8.18
2019-05-02T15:59:37.724Z,9.35
2019-05-02T16:02:05.393Z,9.58
2019-05-02T16:04:35.296Z,10.55
2019-05-02T16:07:06.987Z,9.83
2019-05-02T16:09:33.500Z,8.40
2019-05-02T16:12:03.141Z,7.42
2019-05-02T16:14:34.100Z,4.25
2019-05-02T16:17:03.764Z,2.65
2019-05-02T16:19:33.300Z,2.80
2019-05-02T16:22:22.601Z,2.30
2019-05-02T16:24:53.228Z,2.42
2019-05-02T16:27:25.443Z,1.82
2019-05-02T16:29:52.784Z,1.75
2019-05-02T16:32:25.368Z,1.55
2019-05-02T16:34:55.170Z,1.57
2019-05-02T16:37:23.549Z,1.87
2019-05-02T16:39:51.816Z,1.40
2019-05-02T16:42:20.048Z,1.20
2019-05-02T16:44:48.289Z,1.40
2019-05-02T16:47:16.568Z,1.55
2019-05-02T16:49:47.954Z,1.15
2019-05-02T16:52:16.201Z,1.70
2019-05-02T16:54:44.476Z,1.70
2019-05-02T16:57:17.247Z,2.12
2019-05-02T16:59:42.799Z,2.58
2019-05-02T17:02:12.180Z,2.60
2019-05-02T17:04:42.521Z,3.08
2019-05-02T17:07:12.427Z,3.47
2019-05-02T17:09:48.269Z,3.42
2019-05-02T17:12:16.615Z,3.37
2019-05-02T17:14:51.614Z,3.37
2019-05-02T17:17:17.158Z,3.15
2019-05-02T17:19:45.391Z,4.00
2019-05-02T17:22:16.682Z,3.60
2019-05-02T17:24:43.624Z,3.70
2019-05-02T17:27:12.938Z,4.03
2019-05-02T17:29:43.268Z,3.70
2019-05-02T17:32:11.849Z,4.22
2019-05-02T17:34:42.060Z,4.28
2019-05-02T17:37:13.502Z,3.83
2019-05-02T17:39:42.695Z,3.85
2019-05-02T17:42:12.289Z,4.03
2019-05-02T17:44:41.655Z,3.02
2019-05-02T17:47:10.264Z,3.90
2019-05-02T17:49:38.471Z,3.77
2019-05-02T17:52:11.260Z,3.70
2019-05-02T17:54:38.319Z,4.75
2019-05-02T17:57:06.517Z,4.20
2019-05-02T17:59:37.568Z,4.03
2019-05-02T18:02:06.740Z,3.75
2019-05-02T18:04:35.606Z,4.67
2019-05-02T18:07:03.991Z,3.80
2019-05-02T18:09:35.025Z,4.80
2019-05-02T18:12:02.290Z,3.95
2019-05-02T18:14:30.534Z,5.05
2019-05-02T18:16:58.759Z,5.37
2019-05-02T18:19:26.981Z,4.92
2019-05-02T18:21:58.191Z,4.87
2019-05-02T18:24:26.121Z,5.58
2019-05-02T18:26:54.529Z,5.03
2019-05-02T18:29:22.730Z,4.90
2019-05-02T18:31:52.122Z,6.00
2019-05-02T18:34:25.039Z,6.47
2019-05-02T18:36:52.421Z,6.10
2019-05-02T18:39:22.160Z,5.25
2019-05-02T18:41:51.963Z,4.90
2019-05-02T18:44:21.863Z,5.03
2019-05-02T18:46:51.877Z,5.28
2019-05-02T18:49:21.915Z,4.58
2019-05-02T18:51:53.911Z,5.70
2019-05-02T18:54:21.660Z,4.83
2019-05-02T18:56:54.981Z,5.20
2019-05-02T18:59:22.508Z,5.10
2019-05-02T19:01:52.705Z,5.25
2019-05-02T19:04:22.086Z,4.55
2019-05-02T19:06:51.918Z,5.28
2019-05-02T19:09:24.950Z,5.15
2019-05-02T19:11:52.253Z,5.50
2019-05-02T19:14:22.262Z,5.75
2019-05-02T19:16:51.981Z,5.85
2019-05-02T19:19:22.577Z,5.65
2019-05-02T19:21:51.745Z,6.00
2019-05-02T19:24:20.115Z,6.05
2019-05-02T19:26:49.554Z,5.33
2019-05-02T19:29:26.707Z,5.42
2019-05-02T19:31:54.951Z,5.45
2019-05-02T19:34:26.901Z,5.17
2019-05-02T19:36:58.135Z,5.28
2019-05-02T19:39:24.329Z,4.90
2019-05-02T19:41:53.192Z,5.10
2019-05-02T19:44:28.946Z,4.40
2019-05-02T19:46:51.985Z,4.70
2019-05-02T19:49:22.110Z,4.35
2019-05-02T19:51:56.187Z,4.90
2019-05-02T19:54:21.869Z,4.75
2019-05-02T19:56:52.394Z,5.67
2019-05-02T19:59:24.600Z,4.28
2019-05-02T20:01:52.165Z,3.35
2019-05-02T20:04:22.056Z,3.90
2019-05-02T20:06:50.505Z,4.12
2019-05-02T20:09:18.777Z,4.20
2019-05-02T20:11:47.063Z,4.65
2019-05-02T20:14:15.332Z,3.90
2019-05-02T20:16:46.726Z,3.87
2019-05-02T20:19:17.394Z,3.22
2019-05-02T20:21:46.702Z,2.95
2019-05-02T20:24:19.299Z,4.08
2019-05-02T20:26:46.760Z,3.20
2019-05-02T20:29:14.963Z,3.00
2019-05-02T20:31:43.265Z,3.27
2019-05-02T20:34:11.847Z,3.30
2019-05-02T20:36:40.187Z,3.77
2019-05-02T20:39:08.459Z,3.45
2019-05-02T20:41:36.724Z,3.20
2019-05-02T20:44:04.943Z,4.03
2019-05-02T20:46:33.190Z,3.08
2019-05-02T20:49:02.048Z,3.35
2019-05-02T20:51:31.896Z,3.92
2019-05-02T20:54:01.991Z,3.08
2019-05-02T20:56:32.097Z,2.95
2019-05-02T20:59:02.052Z,3.50
2019-05-02T21:01:32.186Z,4.83
2019-05-02T21:04:02.576Z,3.45
2019-05-02T21:06:41.351Z,2.83
2019-05-02T21:09:09.755Z,2.77
2019-05-02T21:11:38.158Z,3.45
2019-05-02T21:14:06.411Z,2.95
2019-05-02T21:16:34.654Z,2.65
2019-05-02T21:19:02.926Z,2.20
2019-05-02T21:21:32.503Z,2.92
2019-05-02T21:24:02.091Z,2.60
2019-05-02T21:26:32.638Z,2.92
2019-05-02T21:29:00.446Z,2.40
2019-05-02T21:31:28.771Z,2.65
2019-05-02T21:33:56.997Z,3.42
2019-05-02T21:36:25.260Z,2.80
2019-05-02T21:38:53.491Z,3.08
2019-05-02T21:41:22.173Z,2.87
2019-05-02T21:43:51.869Z,2.85
2019-05-02T21:46:22.169Z,2.87
2019-05-02T21:48:52.498Z,3.10
2019-05-02T21:51:24.762Z,2.65
2019-05-02T21:53:58.421Z,2.92
2019-05-02T21:56:43.524Z,2.65
2019-05-02T21:59:12.547Z,3.08
2019-05-02T22:01:57.102Z,2.95
2019-05-02T22:04:25.381Z,2.33
2019-05-02T22:06:53.642Z,3.35
2019-05-02T22:09:23.159Z,3.20
2019-05-02T22:11:52.242Z,2.98
2019-05-02T22:14:22.302Z,3.12
2019-05-02T22:16:52.675Z,3.10
2019-05-02T22:19:20.892Z,3.35
2019-05-02T22:21:49.151Z,2.87
2019-05-02T22:24:17.415Z,3.52
2019-05-02T22:26:45.710Z,2.85
2019-05-02T22:29:13.994Z,3.72
2019-05-02T22:31:43.076Z,2.65
2019-05-02T22:34:12.813Z,3.05
2019-05-02T22:36:42.314Z,3.40
2019-05-02T22:39:22.204Z,2.98
2019-05-02T22:41:52.478Z,2.90
2019-05-02T22:44:21.882Z,3.10
2019-05-02T22:46:51.964Z,3.08
2019-05-02T22:49:22.334Z,2.72
2019-05-02T22:51:50.395Z,2.95
2019-05-02T22:54:29.976Z,2.83
2019-05-02T22:56:48.616Z,3.10
2019-05-02T22:59:16.938Z,3.47
2019-05-02T23:01:45.355Z,2.52
2019-05-02T23:04:13.666Z,3.15
2019-05-02T23:06:44.163Z,3.72
2019-05-02T23:09:12.645Z,2.83
2019-05-02T23:11:42.606Z,3.17
2019-05-02T23:14:11.098Z,3.83
2019-05-02T23:16:42.322Z,3.42
2019-05-02T23:19:12.017Z,3.12
2019-05-02T23:21:41.926Z,2.92
2019-05-02T23:24:11.719Z,2.20
2019-05-02T23:26:43.284Z,2.72
2019-05-02T23:29:13.221Z,2.52
2019-05-02T23:31:42.299Z,3.02
2019-05-02T23:34:10.647Z,2.87
2019-05-02T23:36:38.929Z,3.22
2019-05-02T23:39:07.431Z,2.83
2019-05-02T23:41:35.686Z,2.72
2019-05-02T23:44:04.039Z,2.33
2019-05-02T23:46:32.389Z,2.40
2019-05-02T23:49:02.055Z,2.62
2019-05-02T23:51:32.057Z,2.60
2019-05-02T23:54:02.076Z,2.50
2019-05-02T23:56:32.545Z,3.02
2019-05-02T23:59:02.739Z,2.70
